createdAt,value
2022-10-25T06:30:49.845Z,9.60
2022-10-25T06:35:56.537Z,8.27
2022-10-25T06:41:00.339Z,8.93
2022-10-25T06:46:07.996Z,10.77
2022-10-25T06:51:11.700Z,10.85
2022-10-25T06:56:16.031Z,9.25
2022-10-25T07:01:22.507Z,6.63
2022-10-25T07:06:28.084Z,8.35
2022-10-25T07:11:33.441Z,11.73
2022-10-25T07:16:38.420Z,7.20
2022-10-25T07:21:41.863Z,8.68
2022-10-25T07:26:45.427Z,9.15
2022-10-25T07:31:50.330Z,4.80
2022-10-25T07:36:56.146Z,8.35
2022-10-25T07:42:00.144Z,6.78
2022-10-25T07:47:18.276Z,7.75
2022-10-25T07:52:27.818Z,5.57
2022-10-25T07:57:31.835Z,6.65
2022-10-25T08:02:37.164Z,6.27
2022-10-25T08:07:40.948Z,10.25
2022-10-25T08:12:44.607Z,8.67
2022-10-25T08:17:50.244Z,8.55
2022-10-25T08:22:54.075Z,13.23
2022-10-25T08:28:00.121Z,8.18
2022-10-25T08:33:10.533Z,6.13
2022-10-25T08:38:15.178Z,10.25
2022-10-25T08:43:34.740Z,7.03
2022-10-25T08:48:45.802Z,8.45
2022-10-25T08:58:58.306Z,7.90
2022-10-25T09:04:05.723Z,6.22
2022-10-25T09:09:24.921Z,7.68
2022-10-25T09:14:40.906Z,10.82
2022-10-25T09:19:59.966Z,12.43
2022-10-25T09:25:07.310Z,8.63
2022-10-25T09:30:14.395Z,9.02
2022-10-25T09:35:26.147Z,14.32
2022-10-25T09:40:47.550Z,10.48
2022-10-25T09:45:56.408Z,11.52
2022-10-25T09:51:13.176Z,8.85
2022-10-25T09:56:17.890Z,6.13
2022-10-25T10:06:35.700Z,14.07
2022-10-25T10:11:42.310Z,14.10
2022-10-25T10:16:50.073Z,11.77
2022-10-25T10:21:57.740Z,13.55
2022-10-25T10:27:03.373Z,9.48
2022-10-25T10:32:23.451Z,12.65
2022-10-25T10:37:30.449Z,9.82
2022-10-25T10:42:38.025Z,11.00
2022-10-25T10:47:45.858Z,6.13
2022-10-25T10:53:00.389Z,11.52
2022-10-25T10:58:09.265Z,11.30
2022-10-25T11:03:58.807Z,13.45
2022-10-25T11:09:17.096Z,12.18
2022-10-25T11:14:34.950Z,6.88
2022-10-25T11:19:50.713Z,13.90
2022-10-25T11:25:06.479Z,9.13
2022-10-25T11:30:19.462Z,11.43
2022-10-25T11:35:59.310Z,17.60
2022-10-25T11:41:14.607Z,10.45
2022-10-25T11:46:30.584Z,15.15
2022-10-25T11:51:43.913Z,12.27
2022-10-25T11:57:01.235Z,7.72
2022-10-25T12:02:21.038Z,9.20
2022-10-25T12:07:33.433Z,8.98
2022-10-25T12:12:46.754Z,11.38
2022-10-25T12:17:55.470Z,12.45
2022-10-25T12:23:01.479Z,9.20
2022-10-25T12:28:17.783Z,7.68
2022-10-25T12:33:30.382Z,12.85
2022-10-25T12:38:36.702Z,9.60
2022-10-25T12:43:49.854Z,8.93
2022-10-25T12:49:44.539Z,7.88
2022-10-25T12:55:06.550Z,6.50
2022-10-25T13:00:15.308Z,6.68
2022-10-25T13:05:41.695Z,6.40
2022-10-25T13:10:48.869Z,5.65
2022-10-25T13:15:57.562Z,8.25
2022-10-25T13:21:02.619Z,10.75
2022-10-25T13:26:09.151Z,8.93
2022-10-25T13:31:58.473Z,7.88
2022-10-25T13:37:38.942Z,12.73
2022-10-25T13:42:45.325Z,7.95
2022-10-25T13:47:53.408Z,12.90
2022-10-25T13:53:03.142Z,9.75
2022-10-25T13:58:40.060Z,7.90
2022-10-25T14:03:51.065Z,8.55
2022-10-25T14:09:08.673Z,11.52
2022-10-25T14:14:23.234Z,6.63
2022-10-25T14:29:45.342Z,8.57
2022-10-25T14:34:54.212Z,8.35
2022-10-25T14:39:57.912Z,9.85
2022-10-25T14:45:02.119Z,9.05
2022-10-25T14:50:15.990Z,10.90
2022-10-25T14:55:32.848Z,9.10
2022-10-25T15:00:36.821Z,8.35
2022-10-25T15:05:43.040Z,9.97
2022-10-25T15:10:51.544Z,9.75
2022-10-25T15:15:55.776Z,8.77
2022-10-25T15:21:10.059Z,14.00
2022-10-25T15:26:28.279Z,10.30
2022-10-25T15:31:33.620Z,10.32
2022-10-25T15:36:40.931Z,8.90
2022-10-25T15:41:44.704Z,9.40
2022-10-25T15:46:48.785Z,8.93
2022-10-25T15:51:54.947Z,9.47
2022-10-25T15:56:58.404Z,13.68
2022-10-25T16:02:03.366Z,7.97
2022-10-25T16:07:11.713Z,12.57
2022-10-25T16:12:22.750Z,14.93
2022-10-25T16:17:26.582Z,13.55
2022-10-25T16:22:31.734Z,12.95
2022-10-25T16:27:35.762Z,17.52
2022-10-25T16:32:42.139Z,18.02
2022-10-25T16:37:47.478Z,17.33
2022-10-25T16:42:54.833Z,21.38
2022-10-25T16:47:58.829Z,17.83
2022-10-25T16:53:07.175Z,18.40
2022-10-25T16:58:11.261Z,20.13
2022-10-25T17:03:17.627Z,20.13
2022-10-25T17:08:24.825Z,20.02
2022-10-25T17:13:28.725Z,23.70
2022-10-25T17:18:33.868Z,20.57
2022-10-25T17:23:39.512Z,19.75
2022-10-25T17:28:44.528Z,22.98
2022-10-25T17:33:49.594Z,22.40
2022-10-25T17:38:55.132Z,20.95
2022-10-25T17:43:59.267Z,23.60
2022-10-25T17:49:05.825Z,20.53
2022-10-25T17:54:11.190Z,21.23
2022-10-25T17:59:14.846Z,16.70
2022-10-25T18:04:21.487Z,19.00
2022-10-25T18:09:26.733Z,23.80
2022-10-25T18:14:33.665Z,21.33
2022-10-25T18:19:37.646Z,23.33
2022-10-25T18:24:42.789Z,20.63
2022-10-25T18:29:46.385Z,18.92
2022-10-25T18:34:51.171Z,19.63
2022-10-25T18:39:57.257Z,25.27
2022-10-25T18:45:01.471Z,25.70
2022-10-25T18:50:11.863Z,28.93
2022-10-25T18:55:29.451Z,26.25
2022-10-25T19:00:51.054Z,27.23
2022-10-25T19:05:56.896Z,22.42
2022-10-25T19:11:19.210Z,26.10
2022-10-25T19:16:25.111Z,24.80
2022-10-25T19:21:29.203Z,25.05
2022-10-25T19:26:36.302Z,22.83
2022-10-25T19:31:40.404Z,18.52
2022-10-25T19:36:44.408Z,22.77
2022-10-25T19:41:51.614Z,23.65
2022-10-25T19:46:55.742Z,22.75
2022-10-25T19:51:59.535Z,25.20
2022-10-25T19:57:06.348Z,25.67
2022-10-25T20:02:10.559Z,23.10
2022-10-25T20:07:14.482Z,22.00
2022-10-25T20:12:19.712Z,22.35
2022-10-25T20:17:23.294Z,22.40
2022-10-25T20:22:27.112Z,26.80
2022-10-25T20:27:32.772Z,25.00
2022-10-25T20:32:37.088Z,26.55
2022-10-25T20:37:40.896Z,20.60
2022-10-25T20:42:48.537Z,20.70
2022-10-25T20:47:55.041Z,21.42
2022-10-25T20:53:09.776Z,17.55
2022-10-25T20:58:15.570Z,20.13
2022-10-25T21:03:19.061Z,18.15
2022-10-25T21:08:28.978Z,19.58
2022-10-25T21:13:36.116Z,20.70
2022-10-25T21:18:43.499Z,25.10
2022-10-25T21:23:49.803Z,22.48
2022-10-25T21:28:55.060Z,23.70
2022-10-25T21:34:02.709Z,20.05
2022-10-25T21:39:06.545Z,20.38
2022-10-25T21:44:11.594Z,20.70
2022-10-25T21:54:18.859Z,20.50
2022-10-25T21:59:26.469Z,18.38
